Time;durP1;ratioP1;P1;durP2;ratioP2;P2;SDS_P1;SDS_P2;PMS_P1;PMS_P2;Temp;Humidity;BMP_temperature;BMP_pressure;BME280_temperature;BME280_humidity;BME280_pressure;Samples;Min_cycle;Max_cycle;Signal;HPM_P1;HPM_P2
2021/07/05 00:01:02;;;;;;;4.82;4.03;;;;;;;;;;3586837;40;20378;-69
2021/07/05 00:03:28;;;;;;;4.88;4.30;;;;;;;;;;3589514;40;20398;-68
2021/07/05 00:05:55;;;;;;;5.30;3.97;;;;;;;;;;3585903;40;20397;-68
2021/07/05 00:08:21;;;;;;;4.47;4.18;;;;;;;;;;3577093;40;20375;-69
2021/07/05 00:10:47;;;;;;;4.97;3.78;;;;;;;;;;3586154;40;20370;-69
2021/07/05 00:13:15;;;;;;;4.35;3.78;;;;;;;;;;3586134;40;20858;-68
2021/07/05 00:15:41;;;;;;;3.60;3.30;;;;;;;;;;3586279;40;20382;-68
2021/07/05 00:18:08;;;;;;;3.55;3.25;;;;;;;;;;3586251;40;20371;-68
2021/07/05 00:20:36;;;;;;;5.30;4.82;;;;;;;;;;3586812;40;20763;-68
2021/07/05 00:23:03;;;;;;;4.25;3.92;;;;;;;;;;3587849;40;20382;-68
2021/07/05 00:25:29;;;;;;;6.75;4.93;;;;;;;;;;3587745;40;20471;-68
2021/07/05 00:27:56;;;;;;;4.60;4.20;;;;;;;;;;3578409;40;20394;-68
2021/07/05 00:30:24;;;;;;;7.15;4.60;;;;;;;;;;3587591;40;20751;-68
2021/07/05 00:32:51;;;;;;;4.07;3.77;;;;;;;;;;3587788;40;20394;-68
2021/07/05 00:35:18;;;;;;;3.87;3.57;;;;;;;;;;3587446;40;20441;-68
2021/07/05 00:37:44;;;;;;;5.53;5.03;;;;;;;;;;3578695;40;20397;-69
2021/07/05 00:40:11;;;;;;;4.57;4.18;;;;;;;;;;3587266;40;20366;-68
2021/07/05 00:42:37;;;;;;;4.77;4.00;;;;;;;;;;3587652;40;20374;-68
2021/07/05 00:45:04;;;;;;;5.93;5.32;;;;;;;;;;3587617;40;20468;-68
2021/07/05 00:47:32;;;;;;;4.50;4.20;;;;;;;;;;3587347;40;20378;-68
2021/07/05 00:49:59;;;;;;;4.55;3.95;;;;;;;;;;3576051;40;20386;-68
2021/07/05 00:52:25;;;;;;;4.38;4.05;;;;;;;;;;3587415;40;20744;-67
2021/07/05 00:54:51;;;;;;;6.10;5.50;;;;;;;;;;3577949;40;20418;-67
2021/07/05 00:57:20;;;;;;;5.40;4.88;;;;;;;;;;3578197;40;20434;-67
2021/07/05 00:59:47;;;;;;;5.82;4.70;;;;;;;;;;3585045;40;20386;-67
2021/07/05 01:02:14;;;;;;;8.83;5.17;;;;;;;;;;3587914;40;20571;-64
2021/07/05 01:04:41;;;;;;;4.80;4.25;;;;;;;;;;3588037;23;20449;-62
2021/07/05 01:07:07;;;;;;;5.50;5.00;;;;;;;;;;3566582;40;20409;-63
2021/07/05 01:09:33;;;;;;;5.32;4.38;;;;;;;;;;3567246;40;21009;-61
2021/07/05 01:12:00;;;;;;;4.13;3.75;;;;;;;;;;3567046;40;20762;-61
2021/07/05 01:14:26;;;;;;;3.35;2.97;;;;;;;;;;3565183;40;20402;-62
2021/07/05 01:16:52;;;;;;;3.05;2.85;;;;;;;;;;3565401;40;20382;-62
2021/07/05 01:19:18;;;;;;;1.80;1.70;;;;;;;;;;3557796;40;20441;-62
2021/07/05 01:21:46;;;;;;;2.35;1.30;;;;;;;;;;3562981;40;20393;-61
2021/07/05 01:24:12;;;;;;;1.03;0.50;;;;;;;;;;3571694;40;20447;-62
2021/07/05 01:26:38;;;;;;;1.10;0.65;;;;;;;;;;3563119;40;20374;-61
2021/07/05 01:29:04;;;;;;;0.95;0.60;;;;;;;;;;3567274;40;20380;-62
2021/07/05 01:31:31;;;;;;;0.40;0.30;;;;;;;;;;3557839;40;20398;-61
2021/07/05 01:33:57;;;;;;;0.50;0.30;;;;;;;;;;3558706;40;20401;-61
2021/07/05 01:36:23;;;;;;;1.10;0.30;;;;;;;;;;3568407;40;20392;-61
2021/07/05 01:38:51;;;;;;;0.40;0.10;;;;;;;;;;3570541;40;20394;-62
2021/07/05 01:41:19;;;;;;;0.60;0.17;;;;;;;;;;3571588;40;20386;-61
2021/07/05 01:43:45;;;;;;;3.20;0.20;;;;;;;;;;3570586;40;20383;-62
2021/07/05 01:46:11;;;;;;;0.20;0.10;;;;;;;;;;3572783;40;20762;-61
2021/07/05 01:48:37;;;;;;;1.20;0.10;;;;;;;;;;3567109;40;20376;-62
2021/07/05 01:51:04;;;;;;;0.10;0.10;;;;;;;;;;3567099;40;20380;-61
2021/07/05 01:53:30;;;;;;;0.73;0.10;;;;;;;;;;3567251;40;20393;-61
2021/07/05 01:55:58;;;;;;;0.80;0.50;;;;;;;;;;3567110;40;20467;-62
2021/07/05 01:58:24;;;;;;;0.50;0.10;;;;;;;;;;3566619;40;20476;-62
2021/07/05 02:00:51;;;;;;;0.80;0.10;;;;;;;;;;3563570;40;20452;-62
2021/07/05 02:03:17;;;;;;;0.20;0.10;;;;;;;;;;3567810;40;21636;-62
2021/07/05 02:05:44;;;;;;;0.65;0.10;;;;;;;;;;3558100;40;20398;-62
2021/07/05 02:08:11;;;;;;;0.40;0.20;;;;;;;;;;3571912;40;20385;-63
2021/07/05 02:10:39;;;;;;;0.40;0.20;;;;;;;;;;3568295;40;20394;-62
2021/07/05 02:13:07;;;;;;;0.50;0.10;;;;;;;;;;3567209;40;20381;-62
2021/07/05 02:15:34;;;;;;;0.10;0.10;;;;;;;;;;3572538;40;20822;-62
2021/07/05 02:18:00;;;;;;;0.10;0.10;;;;;;;;;;3567330;40;20369;-64
2021/07/05 02:20:27;;;;;;;0.68;0.13;;;;;;;;;;3567048;40;20459;-64
2021/07/05 02:22:53;;;;;;;0.73;0.20;;;;;;;;;;3570025;40;20391;-63
2021/07/05 02:25:21;;;;;;;0.70;0.10;;;;;;;;;;3570234;40;20424;-64
2021/07/05 02:27:48;;;;;;;1.00;0.10;;;;;;;;;;3567236;40;20378;-62
2021/07/05 02:30:17;;;;;;;0.10;0.03;;;;;;;;;;3567009;40;20432;-62
2021/07/05 02:32:44;;;;;;;0.13;0.10;;;;;;;;;;3564360;40;20467;-62
2021/07/05 02:35:11;;;;;;;0.50;0.20;;;;;;;;;;3575703;40;20431;-62
2021/07/05 02:37:38;;;;;;;0.10;0.10;;;;;;;;;;3566940;40;20786;-62
2021/07/05 02:40:05;;;;;;;0.17;0.07;;;;;;;;;;3569834;40;20460;-61
2021/07/05 02:42:31;;;;;;;0.10;0.10;;;;;;;;;;3571331;40;20455;-62
2021/07/05 02:44:58;;;;;;;0.20;0.10;;;;;;;;;;3570630;40;20781;-62
2021/07/05 02:47:25;;;;;;;2.70;0.20;;;;;;;;;;3566824;40;20374;-62
2021/07/05 02:49:51;;;;;;;0.30;0.10;;;;;;;;;;3566868;40;20393;-65
2021/07/05 02:52:17;;;;;;;0.20;0.10;;;;;;;;;;3567402;40;20376;-63
2021/07/05 02:54:43;;;;;;;0.50;0.10;;;;;;;;;;3570875;40;20397;-61
2021/07/05 02:57:28;;;;;;;0.93;0.00;;;;;;;;;;3559775;40;20769;-62
2021/07/05 02:59:56;;;;;;;1.07;0.10;;;;;;;;;;3567072;40;20370;-62
2021/07/05 03:02:22;;;;;;;0.10;0.10;;;;;;;;;;3569142;40;20392;-62
2021/07/05 03:04:49;;;;;;;0.10;0.10;;;;;;;;;;3562869;40;20408;-62
2021/07/05 03:07:17;;;;;;;0.70;0.00;;;;;;;;;;3576959;40;20388;-61
2021/07/05 03:09:43;;;;;;;0.10;0.00;;;;;;;;;;3576901;40;20372;-61
2021/07/05 03:12:11;;;;;;;0.80;0.10;;;;;;;;;;3576135;40;22672;-62
2021/07/05 03:14:37;;;;;;;0.60;0.10;;;;;;;;;;3574297;40;20418;-61
2021/07/05 03:17:03;;;;;;;0.20;0.05;;;;;;;;;;3576705;40;20774;-61
2021/07/05 03:19:30;;;;;;;0.70;0.20;;;;;;;;;;3576342;40;20380;-67
2021/07/05 03:21:57;;;;;;;0.20;0.10;;;;;;;;;;3576736;40;20582;-62
2021/07/05 03:24:23;;;;;;;0.30;0.00;;;;;;;;;;3571181;40;20404;-62
2021/07/05 03:26:50;;;;;;;0.20;0.10;;;;;;;;;;3576961;40;20388;-63
2021/07/05 03:29:16;;;;;;;0.10;0.10;;;;;;;;;;3567105;40;20399;-62
2021/07/05 03:31:42;;;;;;;0.82;0.20;;;;;;;;;;3578923;40;20773;-62
2021/07/05 03:34:08;;;;;;;0.30;0.10;;;;;;;;;;3573783;40;20822;-62
2021/07/05 03:36:34;;;;;;;0.53;0.10;;;;;;;;;;3574101;40;20779;-62
2021/07/05 03:39:02;;;;;;;0.75;0.10;;;;;;;;;;3574561;40;20451;-62
2021/07/05 03:41:28;;;;;;;2.10;0.10;;;;;;;;;;3574914;40;20649;-62
2021/07/05 03:43:54;;;;;;;0.30;0.20;;;;;;;;;;3576477;40;20437;-62
2021/07/05 03:46:21;;;;;;;0.22;0.10;;;;;;;;;;3576377;40;20400;-62
2021/07/05 03:48:47;;;;;;;1.38;0.20;;;;;;;;;;3577738;40;20511;-62
2021/07/05 03:51:13;;;;;;;1.10;0.20;;;;;;;;;;3575887;40;20383;-61
2021/07/05 03:53:39;;;;;;;0.30;0.10;;;;;;;;;;3576085;40;20406;-62
2021/07/05 03:56:07;;;;;;;0.50;0.10;;;;;;;;;;3577778;40;20383;-62
2021/07/05 03:58:33;;;;;;;0.35;0.10;;;;;;;;;;3576522;40;20388;-64
2021/07/05 04:01:00;;;;;;;0.90;0.20;;;;;;;;;;3577722;40;20622;-62
2021/07/05 04:03:26;;;;;;;0.57;0.05;;;;;;;;;;3579823;40;20457;-62
2021/07/05 04:05:53;;;;;;;0.10;0.00;;;;;;;;;;3577066;40;20371;-62
2021/07/05 04:08:21;;;;;;;0.20;0.10;;;;;;;;;;3581180;40;20392;-63
2021/07/05 04:10:47;;;;;;;0.80;0.30;;;;;;;;;;3577881;40;20649;-61
2021/07/05 04:13:15;;;;;;;0.90;0.10;;;;;;;;;;3566718;40;20783;-62
2021/07/05 04:15:41;;;;;;;0.28;0.20;;;;;;;;;;3566772;40;20769;-62
2021/07/05 04:18:09;;;;;;;0.30;0.10;;;;;;;;;;3576387;40;20483;-62
2021/07/05 04:20:35;;;;;;;0.63;0.13;;;;;;;;;;3579496;40;20367;-62
2021/07/05 04:23:01;;;;;;;2.20;0.68;;;;;;;;;;3577262;40;20480;-62
2021/07/05 04:25:28;;;;;;;1.30;0.50;;;;;;;;;;3576223;40;20383;-62
2021/07/05 04:27:55;;;;;;;0.88;0.30;;;;;;;;;;3573448;40;20760;-62
2021/07/05 04:30:22;;;;;;;0.47;0.47;;;;;;;;;;3579007;40;20635;-63
2021/07/05 04:32:48;;;;;;;0.40;0.40;;;;;;;;;;3583350;40;20759;-67
2021/07/05 04:35:17;;;;;;;0.22;0.20;;;17.20;99.90;;;;;;3576421;40;20912;-62
2021/07/05 04:37:44;;;;;;;1.38;0.93;;;18.50;92.10;;;;;;3570682;40;20412;-63
2021/07/05 04:40:12;;;;;;;0.63;0.60;;;18.50;95.20;;;;;;3567115;40;20397;-62
2021/07/05 04:42:39;;;;;;;1.17;0.80;;;18.50;95.70;;;;;;3575620;40;20404;-62
2021/07/05 04:45:07;;;;;;;1.08;1.00;;;18.60;97.50;;;;;;3575782;40;20762;-64
2021/07/05 04:47:35;;;;;;;1.83;0.57;;;18.40;99.00;;;;;;3577097;40;20388;-63
2021/07/05 04:50:01;;;;;;;1.17;0.40;;;18.40;97.80;;;;;;3576140;40;20391;-63
2021/07/05 04:52:27;;;;;;;1.65;0.80;;;18.30;97.00;;;;;;3576061;40;20384;-63
2021/07/05 04:54:53;;;;;;;1.52;1.20;;;18.30;99.90;;;;;;3579243;40;20484;-62
2021/07/05 04:57:20;;;;;;;1.30;1.20;;;18.10;99.90;;;;;;3575868;40;20493;-62
2021/07/05 04:59:46;;;;;;;1.20;1.10;;;18.20;99.90;;;;;;3575948;40;20386;-63
2021/07/05 05:02:12;;;;;;;1.45;1.10;;;18.10;99.90;;;;;;3580032;40;20399;-62
2021/07/05 05:04:39;;;;;;;1.42;1.33;;;18.10;99.90;;;;;;3569775;40;20409;-63
2021/07/05 05:07:05;;;;;;;1.88;1.15;;;17.90;99.90;;;;;;3566858;40;20392;-62
2021/07/05 05:09:31;;;;;;;2.20;1.10;;;17.80;99.90;;;;;;3568846;40;20373;-62
2021/07/05 05:11:57;;;;;;;2.00;0.95;;;17.90;99.90;;;;;;3569582;40;20810;-64
2021/07/05 05:14:23;;;;;;;2.80;1.30;;;17.80;99.90;;;;;;3568219;40;20504;-62
2021/07/05 05:16:49;;;;;;;1.63;1.00;;;17.90;99.90;;;;;;3563105;40;20406;-62
2021/07/05 05:19:15;;;;;;;1.20;0.90;;;17.90;99.90;;;;;;3567480;40;20405;-62
2021/07/05 05:21:43;;;;;;;1.52;1.20;;;17.90;99.90;;;;;;3564790;40;20383;-62
2021/07/05 05:24:09;;;;;;;2.00;1.10;;;17.90;99.90;;;;;;3568493;40;20467;-62
2021/07/05 05:26:34;;;;;;;1.10;0.75;;;18.00;99.90;;;;;;3568372;40;20397;-63
2021/07/05 05:29:00;;;;;;;0.90;0.75;;;18.10;99.90;;;;;;3565586;40;20394;-62
2021/07/05 05:31:26;;;;;;;1.20;0.50;;;18.20;99.90;;;;;;3566855;40;20390;-63
2021/07/05 05:33:52;;;;;;;0.60;0.30;;;18.30;99.90;;;;;;3566161;40;20421;-62
2021/07/05 05:36:18;;;;;;;0.90;0.30;;;18.40;99.30;;;;;;3565118;40;20402;-62
2021/07/05 05:38:47;;;;;;;0.38;0.20;;;18.50;96.60;;;;;;3566065;40;20438;-61
2021/07/05 05:41:14;;;;;;;0.40;0.20;;;18.60;94.80;;;;;;3565659;40;20393;-62
2021/07/05 05:43:40;;;;;;;0.40;0.20;;;18.80;92.30;;;;;;3567141;40;20389;-63
2021/07/05 05:46:07;;;;;;;0.20;0.10;;;19.10;91.50;;;;;;3563216;40;20402;-62
2021/07/05 05:48:33;;;;;;;2.37;0.20;;;;;;;;;;3563951;40;20398;-62
2021/07/05 05:50:59;;;;;;;0.68;0.20;;;;;;;;;;3567264;40;20624;-62
2021/07/05 05:53:26;;;;;;;0.40;0.13;;;;;;;;;;3567087;40;20522;-61
2021/07/05 05:55:53;;;;;;;0.53;0.20;;;;;;;;;;3569109;40;20433;-61
2021/07/05 05:58:19;;;;;;;1.48;0.20;;;;;;;;;;3566845;40;20389;-61
2021/07/05 06:00:46;;;;;;;0.20;0.10;;;;;;;;;;3567321;40;20378;-62
2021/07/05 06:03:12;;;;;;;1.20;0.20;;;;;;;;;;3571129;40;20405;-67
2021/07/05 06:05:38;;;;;;;0.28;0.20;;;;;;;;;;3571316;40;20388;-61
2021/07/05 06:08:04;;;;;;;0.50;0.10;;;;;;;;;;3577309;40;20372;-62
2021/07/05 06:10:30;;;;;;;0.85;0.20;;;;;;;;;;3580601;40;20376;-63
2021/07/05 06:12:58;;;;;;;1.23;0.20;;;;;;;;;;3577094;40;20395;-62
2021/07/05 06:15:24;;;;;;;0.60;0.40;;;;;;;;;;3567551;40;20735;-62
2021/07/05 06:17:51;;;;;;;0.60;0.20;;;;;;;;;;3576586;40;20645;-63
2021/07/05 06:20:18;;;;;;;0.70;0.10;;;;;;;;;;3581727;40;20419;-62
2021/07/05 06:22:54;;;;;;;0.50;0.20;;;;;;;;;;3576958;40;20380;-61
2021/07/05 06:25:20;;;;;;;1.90;0.30;;;;;;;;;;3577180;40;20443;-61
2021/07/05 06:27:46;;;;;;;0.55;0.20;;;;;;;;;;3581583;40;20760;-62
2021/07/05 06:30:15;;;;;;;0.65;0.20;;;;;;;;;;3576915;40;20372;-62
2021/07/05 06:32:41;;;;;;;0.80;0.30;;;;;;;;;;3581417;40;20387;-61
2021/07/05 06:35:08;;;;;;;0.70;0.20;;;;;;;;;;3576982;40;20519;-62
2021/07/05 06:37:34;;;;;;;2.10;0.25;;;;;;;;;;3576710;40;20435;-62
2021/07/05 06:40:00;;;;;;;0.40;0.10;;;;;;;;;;3567643;40;20419;-62
2021/07/05 06:42:27;;;;;;;0.45;0.17;;;;;;;;;;3577017;40;20392;-61
2021/07/05 06:44:53;;;;;;;0.40;0.20;;;;;;;;;;3576801;40;20753;-62
2021/07/05 06:47:20;;;;;;;0.75;0.20;;;;;;;;;;3576865;40;20791;-63
2021/07/05 06:49:47;;;;;;;0.70;0.20;;;;;;;;;;3577772;40;20398;-61
2021/07/05 06:52:13;;;;;;;0.40;0.10;;;;;;;;;;3583388;40;20755;-62
2021/07/05 06:54:40;;;;;;;0.40;0.10;;;;;;;;;;3559170;40;20696;-62
2021/07/05 06:57:06;;;;;;;0.65;0.10;;;;;;;;;;3576787;40;20386;-62
2021/07/05 06:59:32;;;;;;;1.90;0.13;;;;;;;;;;3576791;40;20461;-62
2021/07/05 07:01:58;;;;;;;0.95;0.10;;;;;;;;;;3576670;40;20379;-62
2021/07/05 07:04:26;;;;;;;1.08;0.40;;;;;;;;;;3576656;40;20411;-62
2021/07/05 07:06:52;;;;;;;0.40;0.20;;;;;;;;;;3576709;40;20403;-61
2021/07/05 07:09:18;;;;;;;0.82;0.20;;;;;;;;;;3580154;40;20380;-62
2021/07/05 07:11:45;;;;;;;0.75;0.10;;;;;;;;;;3580534;40;20773;-62
2021/07/05 07:14:11;;;;;;;1.17;0.35;;;;;;;;;;3576759;40;20780;-62
2021/07/05 07:16:44;;;;;;;1.20;0.60;;;;;;;;;;3576755;40;20432;-62
2021/07/05 07:19:17;;;;;;;1.43;0.60;;;;;;;;;;3581239;40;20371;-62
2021/07/05 07:21:45;;;;;;;1.17;0.88;;;;;;;;;;3576803;40;20796;-62
2021/07/05 07:24:11;;;;;;;1.30;0.80;;;;;;;;;;3576505;40;20462;-62
2021/07/05 07:26:37;;;;;;;1.70;0.80;;;;;;;;;;3576709;40;20388;-62
2021/07/05 07:29:04;;;;;;;1.45;0.80;;;;;;;;;;3576316;40;20649;-63
2021/07/05 07:31:31;;;;;;;0.80;0.80;;;;;;;;;;3580084;40;20381;-63
2021/07/05 07:33:57;;;;;;;1.60;0.90;;;;;;;;;;3572826;40;20412;-62
2021/07/05 07:36:25;;;;;;;2.20;0.90;;;;;;;;;;3570140;40;20690;-62
2021/07/05 07:38:57;;;;;;;2.23;0.90;;;;;;;;;;3582842;40;20381;-62
2021/07/05 07:41:24;;;;;;;1.20;0.90;;;;;;;;;;3566534;40;20678;-62
2021/07/05 07:43:50;;;;;;;1.30;0.40;;;;;;;;;;3580806;40;20390;-62
2021/07/05 07:46:17;;;;;;;1.23;0.50;;;;;;;;;;3581020;40;20372;-62
2021/07/05 07:48:43;;;;;;;0.70;0.50;;;;;;;;;;3578927;40;20391;-62
2021/07/05 07:51:09;;;;;;;1.50;0.60;;;;;;;;;;3576747;40;20391;-62
2021/07/05 07:53:35;;;;;;;0.68;0.40;;;21.00;85.80;;;;;;3578725;40;20398;-62
2021/07/05 07:56:03;;;;;;;0.80;0.40;;;;;;;;;;3577563;40;20380;-62
2021/07/05 07:58:29;;;;;;;0.60;0.40;;;;;;;;;;3564485;40;20416;-62
2021/07/05 08:00:55;;;;;;;0.90;0.60;;;;;;;;;;3576314;40;20380;-62
2021/07/05 08:03:21;;;;;;;0.70;0.50;;;;;;;;;;3570582;40;20777;-63
2021/07/05 08:05:47;;;;;;;0.50;0.40;;;;;;;;;;3576516;40;20379;-62
2021/07/05 08:08:15;;;;;;;0.93;0.65;;;;;;;;;;3579615;40;20384;-61
2021/07/05 08:10:42;;;;;;;1.70;0.60;;;;;;;;;;3576112;40;20388;-62
2021/07/05 08:13:09;;;;;;;2.10;0.60;;;;;;;;;;3578278;40;20427;-62
2021/07/05 08:15:35;;;;;;;1.20;0.70;;;23.30;93.00;;;;;;3581994;40;20748;-61
2021/07/05 08:18:02;;;;;;;1.60;0.70;;;;;;;;;;3583922;40;20374;-62
2021/07/05 08:20:28;;;;;;;1.40;0.67;;;;;;;;;;3576676;40;20376;-64
2021/07/05 08:22:55;;;;;;;1.00;0.60;;;;;;;;;;3579254;40;20382;-62
2021/07/05 08:25:22;;;;;;;0.52;0.52;;;;;;;;;;3577542;40;20684;-62
2021/07/05 08:27:48;;;;;;;0.77;0.60;;;;;;;;;;3580724;40;20380;-62
2021/07/05 08:30:19;;;;;;;0.70;0.63;;;;;;;;;;3576214;40;20624;-62
2021/07/05 08:32:45;;;;;;;0.88;0.73;;;;;;;;;;3576216;40;20368;-62
2021/07/05 08:35:12;;;;;;;1.02;0.80;;;;;;;;;;3575914;40;20773;-62
2021/07/05 08:37:38;;;;;;;1.35;0.80;;;;;;;;;;3575883;40;20382;-62
2021/07/05 08:40:05;;;;;;;1.50;0.90;;;;;;;;;;3566659;40;20700;-62
2021/07/05 08:42:32;;;;;;;1.27;1.10;;;;;;;;;;3571199;40;20404;-61
2021/07/05 08:44:58;;;;;;;1.70;0.77;;;;;;;;;;3577514;40;20400;-62
2021/07/05 08:47:27;;;;;;;1.70;0.80;;;;;;;;;;3577490;40;20396;-62
2021/07/05 08:49:53;;;;;;;1.23;0.70;;;;;;;;;;3577541;40;20769;-63
2021/07/05 08:52:19;;;;;;;0.90;0.80;;;;;;;;;;3581001;40;20398;-62
2021/07/05 08:54:45;;;;;;;0.70;0.60;;;;;;;;;;3580719;40;20451;-62
2021/07/05 08:57:28;;;;;;;1.47;0.70;;;;;;;;;;3577596;40;20452;-62
2021/07/05 08:59:54;;;;;;;1.20;0.90;;;;;;;;;;3573058;40;20450;-62
2021/07/05 09:02:21;;;;;;;3.53;1.02;;;;;;;;;;3577413;40;20376;-62
2021/07/05 09:04:48;;;;;;;1.48;0.82;;;;;;;;;;3577155;40;20455;-62
2021/07/05 09:07:15;;;;;;;1.20;0.80;;;;;;;;;;3577439;40;20391;-62
2021/07/05 09:09:56;;;;;;;1.10;0.90;;;;;;;;;;3568003;40;20522;-62
2021/07/05 09:12:22;;;;;;;1.67;0.98;;;;;;;;;;3580673;40;20360;-63
2021/07/05 09:15:02;;;;;;;2.00;0.90;;;;;;;;;;3581810;40;20390;-62
2021/07/05 09:17:32;;;;;;;2.47;0.90;;;;;;;;;;3583703;40;20354;-62
2021/07/05 09:20:00;;;;;;;0.85;0.82;;;;;;;;;;3579559;40;20383;-62
2021/07/05 09:22:26;;;;;;;1.13;0.77;;;;;;;;;;3566693;40;20452;-62
2021/07/05 09:24:58;;;;;;;2.55;1.00;;;;;;;;;;3579630;40;20377;-62
2021/07/05 09:27:32;;;;;;;2.20;1.00;;;;;;;;;;3580456;40;20372;-62
2021/07/05 09:30:05;;;;;;;1.40;0.88;;;;;;;;;;3577316;40;20368;-62
2021/07/05 09:32:31;;;;;;;1.33;0.80;;;;;;;;;;3580655;40;20360;-62
2021/07/05 09:34:58;;;;;;;1.38;0.90;;;;;;;;;;3577133;40;20400;-62
2021/07/05 09:37:26;;;;;;;2.03;0.80;;;;;;;;;;3576386;40;20481;-62
2021/07/05 09:40:10;;;;;;;1.20;0.70;;;;;;;;;;3570816;40;20410;-62
2021/07/05 09:42:37;;;;;;;1.27;0.90;;;;;;;;;;3577276;40;20480;-62
2021/07/05 09:45:06;;;;;;;1.63;0.90;;;;;;;;;;3580253;40;20366;-62
2021/07/05 09:47:32;;;;;;;2.22;1.05;;;;;;;;;;3578094;40;20420;-62
2021/07/05 09:50:07;;;;;;;1.50;0.80;;;;;;;;;;3577242;40;20368;-62
2021/07/05 09:52:36;;;;;;;2.28;0.80;;;;;;;;;;3577256;40;20449;-62
2021/07/05 09:55:07;;;;;;;0.70;0.63;;;;;;;;;;3560624;40;20424;-62
2021/07/05 09:57:40;;;;;;;0.88;0.60;;;;;;;;;;3567975;40;20400;-62
2021/07/05 10:00:13;;;;;;;1.83;0.63;;;;;;;;;;3578324;40;20368;-62
2021/07/05 10:02:54;;;;;;;1.27;0.70;;;;;;;;;;3578866;40;20772;-64
2021/07/05 10:05:21;;;;;;;1.80;1.00;;;;;;;;;;3567488;40;20659;-61
2021/07/05 10:07:58;;;;;;;2.65;0.80;;;;;;;;;;3570830;40;20400;-63
2021/07/05 10:10:25;;;;;;;1.35;0.60;;;;;;;;;;3571730;40;20378;-63
2021/07/05 10:12:51;;;;;;;0.80;0.60;;;;;;;;;;3573237;40;20380;-63
2021/07/05 10:15:18;;;;;;;0.63;0.60;;;;;;;;;;3572176;40;20401;-63
2021/07/05 10:17:46;;;;;;;1.23;0.50;;;;;;;;;;3566963;40;20479;-63
2021/07/05 10:20:13;;;;;;;0.60;0.50;;;;;;;;;;3567096;40;20396;-63
2021/07/05 10:22:39;;;;;;;1.70;0.50;;;;;;;;;;3566975;40;20373;-62
2021/07/05 10:25:07;;;;;;;0.73;0.52;;;;;;;;;;3571723;40;20387;-63
2021/07/05 10:27:34;;;;;;;1.40;0.60;;;;;;;;;;3567193;40;20449;-63
2021/07/05 10:30:02;;;;;;;2.72;0.70;;;;;;;;;;3574413;40;20380;-63
2021/07/05 10:32:28;;;;;;;1.40;0.63;;;26.50;98.60;;;;;;3571582;40;20381;-63
2021/07/05 10:34:54;;;;;;;1.45;0.50;;;27.00;89.80;;;;;;3570322;40;20505;-63
2021/07/05 10:37:31;;;;;;;1.17;0.45;;;27.10;85.50;;;;;;3567981;40;20392;-63
2021/07/05 10:39:58;;;;;;;1.60;0.60;;;;;;;;;;3562788;40;20377;-63
2021/07/05 10:42:33;;;;;;;1.70;0.70;;;;;;;;;;3565872;40;20386;-63
2021/07/05 10:44:59;;;;;;;0.90;0.50;;;;;;;;;;3566702;40;20411;-62
2021/07/05 10:47:45;;;;;;;1.60;0.40;;;;;;;;;;3568187;40;20381;-63
2021/07/05 10:50:30;;;;;;;0.65;0.50;;;;;;;;;;3571155;40;20381;-63
2021/07/05 10:52:56;;;;;;;0.73;0.50;;;;;;;;;;3560908;40;20368;-63
2021/07/05 10:55:36;;;;;;;0.40;0.40;;;;;;;;;;3565131;40;20498;-62
2021/07/05 10:58:04;;;;;;;2.63;0.52;;;;;;;;;;3564103;40;20397;-63
2021/07/05 11:00:40;;;;;;;1.05;0.43;;;;;;;;;;3566024;40;20386;-63
2021/07/05 11:03:06;;;;;;;0.90;0.50;;;;;;;;;;3564107;40;20410;-63
2021/07/05 11:05:37;;;;;;;1.00;0.50;;;;;;;;;;3565826;40;20422;-62
2021/07/05 11:08:19;;;;;;;1.20;0.50;;;;;;;;;;3567091;40;20862;-62
2021/07/05 11:10:46;;;;;;;0.55;0.50;;;;;;;;;;3565815;40;20374;-63
2021/07/05 11:13:17;;;;;;;1.40;0.50;;;;;;;;;;3565854;40;20392;-62
2021/07/05 11:15:50;;;;;;;1.00;0.50;;;;;;;;;;3563761;40;20382;-63
2021/07/05 11:18:46;;;;;;;1.02;0.40;;;;;;;;;;3566191;40;20489;-62
2021/07/05 11:21:32;;;;;;;0.40;0.40;;;;;;;;;;3535083;40;20450;-62
2021/07/05 11:24:13;;;;;;;1.50;0.40;;;;;;;;;;3534766;40;20510;-62
2021/07/05 11:26:40;;;;;;;0.75;0.40;;;;;;;;;;3526976;40;20668;-63
2021/07/05 11:29:24;;;;;;;1.45;0.60;;;;;;;;;;3545017;40;20398;-63
2021/07/05 11:31:50;;;;;;;1.40;0.60;;;;;;;;;;3566115;40;20394;-63
2021/07/05 11:34:26;;;;;;;1.90;0.60;;;;;;;;;;3566236;40;20413;-62
2021/07/05 11:37:21;;;;;;;1.17;0.60;;;;;;;;;;3556893;40;20417;-68
2021/07/05 11:39:49;;;;;;;1.13;0.60;;;;;;;;;;3556982;40;20397;-62
2021/07/05 11:42:21;;;;;;;0.88;0.60;;;;;;;;;;3565997;40;20788;-63
2021/07/05 11:44:50;;;;;;;0.98;0.60;;;;;;;;;;3565356;40;20413;-63
2021/07/05 11:47:31;;;;;;;1.50;0.50;;;;;;;;;;3566374;40;20471;-63
2021/07/05 11:50:12;;;;;;;0.95;0.50;;;;;;;;;;3566134;40;20404;-63
2021/07/05 11:52:38;;;;;;;1.10;0.60;;;;;;;;;;3565918;40;20393;-63
2021/07/05 11:55:05;;;;;;;2.40;0.40;;;;;;;;;;3568199;40;20399;-62
2021/07/05 11:57:31;;;;;;;0.70;0.70;;;;;;;;;;3561055;40;20370;-63
2021/07/05 12:00:04;;;;;;;0.95;0.70;;;;;;;;;;3566156;40;20401;-63
2021/07/05 12:02:30;;;;;;;2.60;0.80;;;;;;;;;;3563473;40;20387;-63
2021/07/05 12:05:05;;;;;;;1.05;0.60;;;;;;;;;;3565483;40;20428;-64
2021/07/05 12:07:31;;;;;;;1.00;0.80;;;;;;;;;;3563766;40;20373;-63
2021/07/05 12:09:57;;;;;;;1.30;0.50;;;;;;;;;;3569398;40;20516;-63
2021/07/05 12:12:23;;;;;;;1.60;0.63;;;;;;;;;;3568160;40;20378;-63
2021/07/05 12:14:50;;;;;;;0.80;0.50;;;;;;;;;;3560590;40;20422;-63
2021/07/05 12:17:19;;;;;;;1.00;0.60;;;;;;;;;;3567351;40;20373;-63
2021/07/05 12:19:47;;;;;;;1.10;0.60;;;;;;;;;;3566447;40;20407;-63
2021/07/05 12:22:14;;;;;;;2.88;0.68;;;;;;;;;;3565271;40;20427;-63
2021/07/05 12:24:42;;;;;;;1.30;0.60;;;;;;;;;;3562615;40;20491;-63
2021/07/05 12:27:09;;;;;;;2.00;0.70;;;;;;;;;;3564571;40;20433;-63
2021/07/05 12:29:38;;;;;;;1.20;0.70;;;;;;;;;;3571692;40;20384;-64
2021/07/05 12:32:13;;;;;;;1.35;0.65;;;;;;;;;;3567016;40;20381;-64
2021/07/05 12:34:54;;;;;;;1.23;0.73;;;;;;;;;;3559950;40;20405;-63
2021/07/05 12:37:25;;;;;;;1.67;0.80;;;;;;;;;;3566731;40;20382;-63
2021/07/05 12:39:53;;;;;;;2.30;0.80;;;;;;;;;;3567637;40;20362;-63
2021/07/05 12:42:23;;;;;;;1.60;0.80;;;;;;;;;;3569552;40;20400;-63
2021/07/05 12:44:49;;;;;;;2.00;0.80;;;;;;;;;;3570871;40;20711;-63
2021/07/05 12:47:15;;;;;;;2.08;0.70;;;30.00;74.90;;;;;;3567754;40;20392;-63
2021/07/05 12:49:41;;;;;;;1.80;0.63;;;30.60;75.10;;;;;;3570988;40;20629;-63
2021/07/05 12:52:09;;;;;;;1.55;0.80;;;30.70;77.00;;;;;;3571014;40;20751;-62
2021/07/05 12:54:38;;;;;;;2.70;1.00;;;30.90;77.60;;;;;;3569292;40;20676;-63
2021/07/05 12:57:11;;;;;;;1.00;0.70;;;30.10;75.90;;;;;;3561618;40;20402;-63
2021/07/05 12:59:39;;;;;;;2.10;1.15;;;30.40;77.10;;;;;;3569126;40;20407;-63
2021/07/05 13:02:05;;;;;;;2.13;1.17;;;;;;;;;;3571455;40;20769;-63
2021/07/05 13:04:32;;;;;;;2.35;1.20;;;30.20;79.20;;;;;;3574049;40;20411;-63
2021/07/05 13:07:09;;;;;;;1.55;1.10;;;29.30;82.60;;;;;;3577300;40;20391;-63
2021/07/05 13:09:37;;;;;;;1.27;1.05;;;;;;;;;;3578126;40;20372;-64
2021/07/05 13:12:06;;;;;;;2.17;1.20;;;;;;;;;;3577293;40;20890;-63
2021/07/05 13:14:34;;;;;;;1.60;0.90;;;;;;;;;;3581221;40;20382;-63
2021/07/05 13:17:05;;;;;;;3.30;1.42;;;;;;;;;;3577971;40;20372;-63
2021/07/05 13:19:31;;;;;;;1.25;1.15;;;;;;;;;;3577331;40;20380;-63
2021/07/05 13:21:57;;;;;;;2.17;1.30;;;;;;;;;;3567822;40;20404;-64
2021/07/05 13:24:27;;;;;;;2.35;1.60;;;29.70;82.30;;;;;;3581838;40;20765;-63
2021/07/05 13:26:56;;;;;;;3.25;1.15;;;30.10;77.30;;;;;;3581599;40;20849;-63
2021/07/05 13:29:24;;;;;;;2.80;1.27;;;30.20;80.30;;;;;;3571774;40;20781;-63
2021/07/05 13:31:51;;;;;;;2.25;1.10;;;30.30;79.10;;;;;;3567869;40;20392;-64
2021/07/05 13:34:35;;;;;;;2.50;1.30;;;30.50;81.20;;;;;;3577988;40;20408;-63
2021/07/05 13:37:02;;;;;;;2.67;1.30;;;;;;;;;;3582163;40;20376;-63
2021/07/05 13:39:29;;;;;;;2.08;1.58;;;30.80;95.00;;;;;;3566600;40;20657;-63
2021/07/05 13:42:02;;;;;;;1.90;1.30;;;;;;;;;;3580490;40;20622;-64
2021/07/05 13:44:28;;;;;;;1.67;1.30;;;;;;;;;;3575627;40;20364;-63
2021/07/05 13:47:09;;;;;;;1.50;1.08;;;;;;;;;;3580888;40;20391;-63
2021/07/05 13:49:35;;;;;;;1.33;1.20;;;;;;;;;;3579777;40;20376;-64
2021/07/05 13:52:02;;;;;;;2.70;1.17;;;;;;;;;;3577261;40;20372;-64
2021/07/05 13:54:28;;;;;;;3.05;1.60;;;;;;;;;;3582823;40;20501;-63
2021/07/05 13:57:05;;;;;;;1.27;1.00;;;;;;;;;;3579942;40;20381;-63
2021/07/05 13:59:31;;;;;;;1.23;0.97;;;;;;;;;;3574392;40;20434;-63
2021/07/05 14:01:57;;;;;;;1.50;0.88;;;;;;;;;;3580559;40;20388;-63
2021/07/05 14:04:23;;;;;;;2.38;1.02;;;30.10;83.70;;;;;;3577221;40;20458;-63
2021/07/05 14:06:50;;;;;;;1.17;0.90;;;;;;;;;;3564884;40;20411;-63
2021/07/05 14:09:16;;;;;;;1.58;0.95;;;;;;;;;;3579647;40;20424;-63
2021/07/05 14:11:42;;;;;;;2.20;1.02;;;30.40;77.10;;;;;;3578300;40;20374;-63
2021/07/05 14:14:09;;;;;;;2.10;1.10;;;29.70;80.70;;;;;;3577936;40;20403;-63
2021/07/05 14:16:36;;;;;;;1.70;1.05;;;29.70;79.10;;;;;;3576948;40;20388;-63
2021/07/05 14:19:03;;;;;;;1.73;1.03;;;29.80;80.40;;;;;;3581699;40;20380;-63
2021/07/05 14:21:31;;;;;;;2.55;1.08;;;;;;;;;;3577040;40;20380;-63
2021/07/05 14:23:57;;;;;;;3.10;1.10;;;;;;;;;;3581470;40;20656;-63
2021/07/05 14:26:23;;;;;;;2.42;1.00;;;;;;;;;;3576960;40;20380;-63
2021/07/05 14:28:49;;;;;;;1.77;1.00;;;;;;;;;;3576833;40;20386;-63